Aidablu — IBWX — position and weather

sailwx.info

Track history (hours):
 
Tides and Currents Weather Stations Pressure Air Temp Water Temp Dewpoint Dewpoint Depression Visibility Wind Speed Wind Dir Waves Ship Positions

Aidablu

Last reported at 2016-Aug-29 00:33 UTC. Time now 2016-Aug-30 03:13 UTC.
Position N 42°35' E 008°33'.

Length 252 m; draft 7.3 m.

Type: Ship. MMSI: 247282500.

Date/timePositionNaut miles runAvg speedWind from/ knotsBaromVisibWave heightAir tempDewpointWater temp
2016-Aug-29 00:33N 42°35' E 008°33'1512.8
2016-Aug-28 23:25N 42°46' E 008°45'1112.8
2016-Aug-28 22:31N 42°54' E 008°57'1613.3
2016-Aug-28 21:19N 43°04' E 009°14'1012.3
2016-Aug-28 20:32N 43°09' E 009°25'1212.7
2016-Aug-28 19:33N 43°14' E 009°41'1313.0
2016-Aug-28 18:33N 43°19' E 009°57'1312.9
2016-Aug-28 17:33N 43°28' E 010°09'8 7.7
2016-Aug-28 16:33N 43°33' E 010°18'0 0.0
2016-Aug-28 15:26N 43°33' E 010°18'0 0.0
2016-Aug-28 14:32N 43°33' E 010°18'0 0.0
2016-Aug-28 13:31N 43°33' E 010°18'0 0.0
2016-Aug-28 12:31N 43°33' E 010°18'0 0.0
2016-Aug-28 11:33N 43°33' E 010°18'0 0.0
2016-Aug-28 10:33N 43°33' E 010°18'0 0.0
2016-Aug-28 09:32N 43°33' E 010°18'0 0.0
2016-Aug-28 08:32N 43°33' E 010°18'0 0.0
2016-Aug-28 07:32N 43°33' E 010°18'0 0.0
2016-Aug-28 06:31N 43°33' E 010°18'0 0.0
2016-Aug-28 05:31N 43°33' E 010°18'4 4.5
2016-Aug-28 04:33N 43°30' E 010°14'1212.0
2016-Aug-28 03:34N 43°18' E 010°10'1312.6
2016-Aug-28 02:34N 43°06' E 010°06'1313.2
2016-Aug-28 01:34N 42°53' E 010°03'2612.3
2016-Aug-27 23:28N 42°32' E 010°23'1313.3
2016-Aug-27 22:31N 42°24' E 010°36'1313.4
2016-Aug-27 21:33N 42°15' E 010°49'92 4.4
2016-Aug-27 00:34N 41°18' E 012°25'1414.3
2016-Aug-26 23:33N 41°11' E 012°42'4213.9
2016-Aug-26 20:33N 40°51' E 013°30'1313.4
2016-Aug-26 19:33N 40°42' E 013°44'1212.4
2016-Aug-26 18:33N 40°39' E 013°60'1313.0
2016-Aug-26 17:33N 40°46' E 014°14'55 3.2
2016-Aug-26 00:30N 39°53' E 013°56'1313.5
2016-Aug-25 23:33N 39°41' E 013°53'1616.3
2016-Aug-25 22:33N 39°25' E 013°49'1716.9
2016-Aug-25 21:33N 39°09' E 013°44'1717.0
2016-Aug-25 20:33N 38°52' E 013°38'1616.0
2016-Aug-25 19:33N 38°36' E 013°34'1313.3
2016-Aug-25 18:33N 38°23' E 013°30'1313.4
2016-Aug-25 17:33N 38°10' E 013°26'4 3.9
2016-Aug-25 16:29N 38°08' E 013°22'0 0.0
2016-Aug-25 15:31N 38°08' E 013°22'0 0.0
2016-Aug-25 14:31N 38°08' E 013°22'0 0.0
2016-Aug-25 13:33N 38°08' E 013°22'0 0.0
2016-Aug-25 12:33N 38°08' E 013°22'0 0.0
2016-Aug-25 11:33N 38°08' E 013°22'0 0.0
2016-Aug-25 10:32N 38°08' E 013°22'0 0.0
2016-Aug-25 09:32N 38°08' E 013°22'0 0.0
2016-Aug-25 08:31N 38°08' E 013°22'0 0.0
2016-Aug-25 07:33N 38°08' E 013°22'2 2.0
2016-Aug-25 06:33N 38°09' E 013°24'2512.5
2016-Aug-25 04:33N 38°29' E 013°06'426 8.5
2016-Aug-23 02:24N 39°27' E 004°03'1513.8
2016-Aug-23 01:20N 39°20' E 003°46'1613.3
2016-Aug-23 00:09N 39°14' E 003°27'812.7
2016-Aug-22 23:33N 39°13' E 003°18'1313.3
2016-Aug-22 22:33N 39°14' E 003°01'1313.3
2016-Aug-22 21:33N 39°19' E 002°45'1312.6
2016-Aug-22 20:33N 39°31' E 002°39'2 2.4
2016-Aug-22 19:33N 39°33' E 002°38'0 0.0
2016-Aug-22 18:33N 39°33' E 002°38'0 0.0
2016-Aug-22 17:32N 39°33' E 002°38'0 0.0
2016-Aug-22 16:32N 39°33' E 002°38'0 0.0
2016-Aug-22 15:31N 39°33' E 002°38'0 0.0
2016-Aug-22 14:25N 39°33' E 002°38'0 0.0
2016-Aug-22 13:31N 39°33' E 002°38'0 0.0
2016-Aug-22 12:33N 39°33' E 002°38'0 0.0
2016-Aug-22 11:33N 39°33' E 002°38'0 0.0
2016-Aug-22 10:32N 39°33' E 002°38'0 0.0
2016-Aug-22 09:32N 39°33' E 002°38'0 0.0
2016-Aug-22 08:31N 39°33' E 002°38'0 0.0
2016-Aug-22 07:33N 39°33' E 002°38'0 0.0
2016-Aug-22 06:31N 39°33' E 002°38'0 0.0
2016-Aug-22 05:33N 39°33' E 002°38'0 0.0
2016-Aug-22 04:33N 39°33' E 002°38'0 0.0
2016-Aug-22 03:32N 39°33' E 002°38'0 0.1
2016-Aug-22 02:33N 39°33' E 002°38'9 8.7
2016-Aug-22 01:33N 39°26' E 002°32'1312.9
2016-Aug-22 00:33N 39°32' E 002°17'1212.3
2016-Aug-21 23:33N 39°44' E 002°14'1313.3
2016-Aug-21 22:33N 39°57' E 002°14'1313.1
2016-Aug-21 21:33N 40°11' E 002°14'1414.2
2016-Aug-21 20:33N 40°25' E 002°14'1616.5
2016-Aug-21 19:33N 40°41' E 002°14'1413.5
2016-Aug-21 18:33N 40°55' E 002°14'1612.7
2016-Aug-21 17:19N 41°11' E 002°14'912.2
2016-Aug-21 16:33N 41°20' E 002°13'3 0.4
2016-Aug-21 08:12N 41°22' E 002°11'0 0.0
2016-Aug-21 07:30N 41°22' E 002°11'0 0.0
2016-Aug-21 06:23N 41°22' E 002°11'0 0.0
2016-Aug-21 05:25N 41°22' E 002°11'4 5.0
2016-Aug-21 04:31N 41°21' E 002°17'27 2.6
2016-Aug-20 18:13N 41°35' E 002°48'1 2.2
2016-Aug-20 17:33N 41°36' E 002°50'19 9.1
2016-Aug-20 15:29N 41°45' E 003°12'2612.1
2016-Aug-20 13:21N 41°48' E 003°46'11410.4
2016-Aug-20 02:22N 41°47' E 006°19'1213.6
2016-Aug-20 01:29N 41°47' E 006°35'95 4.2
2016-Aug-19 03:05N 42°29' E 008°30'712.6
2016-Aug-19 02:32N 42°35' E 008°34'  
Track history (hours):
 
Tides and Currents Weather Stations Pressure Air Temp Water Temp Dewpoint Dewpoint Depression Visibility Wind Speed Wind Dir Waves Ship Positions

Aidablu

Last reported at 2016-Aug-29 00:33 UTC. Time now 2016-Aug-30 03:13 UTC.
Position N 42°35' E 008°33'.

Length 252 m; draft 7.3 m.

Type: Ship. MMSI: 247282500.

Date/timePositionNaut miles runAvg speedWind from/ knotsBaromVisibWave heightAir tempDewpointWater temp
2016-Aug-29 00:33N 42°35' E 008°33'1512.8
2016-Aug-28 23:25N 42°46' E 008°45'1112.8
2016-Aug-28 22:31N 42°54' E 008°57'1613.3
2016-Aug-28 21:19N 43°04' E 009°14'1012.3
2016-Aug-28 20:32N 43°09' E 009°25'1212.7
2016-Aug-28 19:33N 43°14' E 009°41'1313.0
2016-Aug-28 18:33N 43°19' E 009°57'1312.9
2016-Aug-28 17:33N 43°28' E 010°09'8 7.7
2016-Aug-28 16:33N 43°33' E 010°18'0 0.0
2016-Aug-28 15:26N 43°33' E 010°18'0 0.0
2016-Aug-28 14:32N 43°33' E 010°18'0 0.0
2016-Aug-28 13:31N 43°33' E 010°18'0 0.0
2016-Aug-28 12:31N 43°33' E 010°18'0 0.0
2016-Aug-28 11:33N 43°33' E 010°18'0 0.0
2016-Aug-28 10:33N 43°33' E 010°18'0 0.0
2016-Aug-28 09:32N 43°33' E 010°18'0 0.0
2016-Aug-28 08:32N 43°33' E 010°18'0 0.0
2016-Aug-28 07:32N 43°33' E 010°18'0 0.0
2016-Aug-28 06:31N 43°33' E 010°18'0 0.0
2016-Aug-28 05:31N 43°33' E 010°18'4 4.5
2016-Aug-28 04:33N 43°30' E 010°14'1212.0
2016-Aug-28 03:34N 43°18' E 010°10'1312.6
2016-Aug-28 02:34N 43°06' E 010°06'1313.2
2016-Aug-28 01:34N 42°53' E 010°03'2612.3
2016-Aug-27 23:28N 42°32' E 010°23'1313.3
2016-Aug-27 22:31N 42°24' E 010°36'1313.4
2016-Aug-27 21:33N 42°15' E 010°49'92 4.4
2016-Aug-27 00:34N 41°18' E 012°25'1414.3
2016-Aug-26 23:33N 41°11' E 012°42'4213.9
2016-Aug-26 20:33N 40°51' E 013°30'1313.4
2016-Aug-26 19:33N 40°42' E 013°44'1212.4
2016-Aug-26 18:33N 40°39' E 013°60'1313.0
2016-Aug-26 17:33N 40°46' E 014°14'55 3.2
2016-Aug-26 00:30N 39°53' E 013°56'1313.5
2016-Aug-25 23:33N 39°41' E 013°53'1616.3
2016-Aug-25 22:33N 39°25' E 013°49'1716.9
2016-Aug-25 21:33N 39°09' E 013°44'1717.0
2016-Aug-25 20:33N 38°52' E 013°38'1616.0
2016-Aug-25 19:33N 38°36' E 013°34'1313.3
2016-Aug-25 18:33N 38°23' E 013°30'1313.4
2016-Aug-25 17:33N 38°10' E 013°26'4 3.9
2016-Aug-25 16:29N 38°08' E 013°22'0 0.0
2016-Aug-25 15:31N 38°08' E 013°22'0 0.0
2016-Aug-25 14:31N 38°08' E 013°22'0 0.0
2016-Aug-25 13:33N 38°08' E 013°22'0 0.0
2016-Aug-25 12:33N 38°08' E 013°22'0 0.0
2016-Aug-25 11:33N 38°08' E 013°22'0 0.0
2016-Aug-25 10:32N 38°08' E 013°22'0 0.0
2016-Aug-25 09:32N 38°08' E 013°22'0 0.0
2016-Aug-25 08:31N 38°08' E 013°22'0 0.0
2016-Aug-25 07:33N 38°08' E 013°22'2 2.0
2016-Aug-25 06:33N 38°09' E 013°24'2512.5
2016-Aug-25 04:33N 38°29' E 013°06'426 8.5
2016-Aug-23 02:24N 39°27' E 004°03'1513.8
2016-Aug-23 01:20N 39°20' E 003°46'1613.3
2016-Aug-23 00:09N 39°14' E 003°27'812.7
2016-Aug-22 23:33N 39°13' E 003°18'1313.3
2016-Aug-22 22:33N 39°14' E 003°01'1313.3
2016-Aug-22 21:33N 39°19' E 002°45'1312.6
2016-Aug-22 20:33N 39°31' E 002°39'2 2.4
2016-Aug-22 19:33N 39°33' E 002°38'0 0.0
2016-Aug-22 18:33N 39°33' E 002°38'0 0.0
2016-Aug-22 17:32N 39°33' E 002°38'0 0.0
2016-Aug-22 16:32N 39°33' E 002°38'0 0.0
2016-Aug-22 15:31N 39°33' E 002°38'0 0.0
2016-Aug-22 14:25N 39°33' E 002°38'0 0.0
2016-Aug-22 13:31N 39°33' E 002°38'0 0.0
2016-Aug-22 12:33N 39°33' E 002°38'0 0.0
2016-Aug-22 11:33N 39°33' E 002°38'0 0.0
2016-Aug-22 10:32N 39°33' E 002°38'0 0.0
2016-Aug-22 09:32N 39°33' E 002°38'0 0.0
2016-Aug-22 08:31N 39°33' E 002°38'0 0.0
2016-Aug-22 07:33N 39°33' E 002°38'0 0.0
2016-Aug-22 06:31N 39°33' E 002°38'0 0.0
2016-Aug-22 05:33N 39°33' E 002°38'0 0.0
2016-Aug-22 04:33N 39°33' E 002°38'0 0.0
2016-Aug-22 03:32N 39°33' E 002°38'0 0.1
2016-Aug-22 02:33N 39°33' E 002°38'9 8.7
2016-Aug-22 01:33N 39°26' E 002°32'1312.9
2016-Aug-22 00:33N 39°32' E 002°17'1212.3
2016-Aug-21 23:33N 39°44' E 002°14'1313.3
2016-Aug-21 22:33N 39°57' E 002°14'1313.1
2016-Aug-21 21:33N 40°11' E 002°14'1414.2
2016-Aug-21 20:33N 40°25' E 002°14'1616.5
2016-Aug-21 19:33N 40°41' E 002°14'1413.5
2016-Aug-21 18:33N 40°55' E 002°14'1612.7
2016-Aug-21 17:19N 41°11' E 002°14'912.2
2016-Aug-21 16:33N 41°20' E 002°13'3 0.4
2016-Aug-21 08:12N 41°22' E 002°11'0 0.0
2016-Aug-21 07:30N 41°22' E 002°11'0 0.0
2016-Aug-21 06:23N 41°22' E 002°11'0 0.0
2016-Aug-21 05:25N 41°22' E 002°11'4 5.0
2016-Aug-21 04:31N 41°21' E 002°17'27 2.6
2016-Aug-20 18:13N 41°35' E 002°48'1 2.2
2016-Aug-20 17:33N 41°36' E 002°50'19 9.1
2016-Aug-20 15:29N 41°45' E 003°12'2612.1
2016-Aug-20 13:21N 41°48' E 003°46'11410.4
2016-Aug-20 02:22N 41°47' E 006°19'1213.6
2016-Aug-20 01:29N 41°47' E 006°35'95 4.2
2016-Aug-19 03:05N 42°29' E 008°30'712.6
2016-Aug-19 02:32N 42°35' E 008°34'  

Dump ship's entire track history